sensor_id;sensor_type;location;lat;lon;timestamp;P1;durP1;ratioP1;P2;durP2;ratioP2
52586;SDS011;38480;52.724;6.436;2023-07-08T00:01:44;10.77;;;4.90;;
52586;SDS011;38480;52.724;6.436;2023-07-08T00:04:10;6.13;;;5.00;;
52586;SDS011;38480;52.724;6.436;2023-07-08T00:06:36;8.20;;;4.47;;
52586;SDS011;38480;52.724;6.436;2023-07-08T00:09:04;8.77;;;4.70;;
52586;SDS011;38480;52.724;6.436;2023-07-08T00:11:30;7.90;;;4.67;;
52586;SDS011;38480;52.724;6.436;2023-07-08T00:13:56;9.53;;;5.20;;
52586;SDS011;38480;52.724;6.436;2023-07-08T00:16:23;11.57;;;4.70;;
52586;SDS011;38480;52.724;6.436;2023-07-08T00:18:49;7.70;;;4.40;;
52586;SDS011;38480;52.724;6.436;2023-07-08T00:21:16;8.30;;;5.00;;
52586;SDS011;38480;52.724;6.436;2023-07-08T00:23:45;7.60;;;5.17;;
52586;SDS011;38480;52.724;6.436;2023-07-08T00:26:13;9.73;;;5.17;;
52586;SDS011;38480;52.724;6.436;2023-07-08T00:28:41;9.10;;;4.37;;
52586;SDS011;38480;52.724;6.436;2023-07-08T00:31:08;10.87;;;5.70;;
52586;SDS011;38480;52.724;6.436;2023-07-08T00:33:34;9.57;;;5.50;;
52586;SDS011;38480;52.724;6.436;2023-07-08T00:36:00;9.73;;;5.17;;
52586;SDS011;38480;52.724;6.436;2023-07-08T00:38:26;8.07;;;5.20;;
52586;SDS011;38480;52.724;6.436;2023-07-08T00:41:16;7.60;;;4.40;;
52586;SDS011;38480;52.724;6.436;2023-07-08T00:43:40;7.73;;;4.83;;
52586;SDS011;38480;52.724;6.436;2023-07-08T00:48:40;10.17;;;5.57;;
52586;SDS011;38480;52.724;6.436;2023-07-08T00:51:08;8.80;;;5.40;;
52586;SDS011;38480;52.724;6.436;2023-07-08T00:53:37;9.07;;;5.37;;
52586;SDS011;38480;52.724;6.436;2023-07-08T00:56:06;11.47;;;7.33;;
52586;SDS011;38480;52.724;6.436;2023-07-08T00:58:36;7.37;;;5.70;;
52586;SDS011;38480;52.724;6.436;2023-07-08T01:01:04;10.83;;;5.90;;
52586;SDS011;38480;52.724;6.436;2023-07-08T01:03:30;10.97;;;5.87;;
52586;SDS011;38480;52.724;6.436;2023-07-08T01:05:57;7.23;;;5.40;;
52586;SDS011;38480;52.724;6.436;2023-07-08T01:08:27;9.83;;;5.90;;
52586;SDS011;38480;52.724;6.436;2023-07-08T01:10:54;12.43;;;6.13;;
52586;SDS011;38480;52.724;6.436;2023-07-08T01:13:21;8.93;;;6.10;;
52586;SDS011;38480;52.724;6.436;2023-07-08T01:15:48;10.73;;;5.87;;
52586;SDS011;38480;52.724;6.436;2023-07-08T01:18:15;10.53;;;5.80;;
52586;SDS011;38480;52.724;6.436;2023-07-08T01:20:42;9.67;;;5.40;;
52586;SDS011;38480;52.724;6.436;2023-07-08T01:23:09;9.57;;;5.23;;
52586;SDS011;38480;52.724;6.436;2023-07-08T01:25:36;10.90;;;6.27;;
52586;SDS011;38480;52.724;6.436;2023-07-08T01:28:02;12.03;;;5.90;;
52586;SDS011;38480;52.724;6.436;2023-07-08T01:30:28;14.80;;;6.60;;
52586;SDS011;38480;52.724;6.436;2023-07-08T01:32:55;9.40;;;5.43;;
52586;SDS011;38480;52.724;6.436;2023-07-08T01:35:22;12.33;;;6.33;;
52586;SDS011;38480;52.724;6.436;2023-07-08T01:37:49;10.87;;;5.80;;
52586;SDS011;38480;52.724;6.436;2023-07-08T01:42:45;9.63;;;6.33;;
52586;SDS011;38480;52.724;6.436;2023-07-08T01:45:12;10.20;;;6.00;;
52586;SDS011;38480;52.724;6.436;2023-07-08T01:47:38;11.50;;;6.37;;
52586;SDS011;38480;52.724;6.436;2023-07-08T01:50:05;9.23;;;6.37;;
52586;SDS011;38480;52.724;6.436;2023-07-08T01:52:32;12.90;;;6.60;;
52586;SDS011;38480;52.724;6.436;2023-07-08T01:54:58;11.10;;;6.20;;
52586;SDS011;38480;52.724;6.436;2023-07-08T01:57:24;12.37;;;6.27;;
52586;SDS011;38480;52.724;6.436;2023-07-08T01:59:50;10.33;;;6.27;;
52586;SDS011;38480;52.724;6.436;2023-07-08T02:02:17;11.03;;;6.20;;
52586;SDS011;38480;52.724;6.436;2023-07-08T02:04:43;12.77;;;6.13;;
52586;SDS011;38480;52.724;6.436;2023-07-08T02:07:09;9.80;;;5.47;;
52586;SDS011;38480;52.724;6.436;2023-07-08T02:09:35;8.87;;;5.60;;
52586;SDS011;38480;52.724;6.436;2023-07-08T02:12:01;10.83;;;6.23;;
52586;SDS011;38480;52.724;6.436;2023-07-08T02:14:27;10.07;;;6.17;;
52586;SDS011;38480;52.724;6.436;2023-07-08T02:16:52;12.10;;;6.63;;
52586;SDS011;38480;52.724;6.436;2023-07-08T02:19:19;10.93;;;5.77;;
52586;SDS011;38480;52.724;6.436;2023-07-08T02:21:47;12.63;;;6.60;;
52586;SDS011;38480;52.724;6.436;2023-07-08T02:24:13;10.00;;;6.40;;
52586;SDS011;38480;52.724;6.436;2023-07-08T02:26:42;10.03;;;6.00;;
52586;SDS011;38480;52.724;6.436;2023-07-08T02:29:08;9.77;;;6.07;;
52586;SDS011;38480;52.724;6.436;2023-07-08T02:31:33;9.93;;;6.77;;
52586;SDS011;38480;52.724;6.436;2023-07-08T02:33:59;14.70;;;8.60;;
52586;SDS011;38480;52.724;6.436;2023-07-08T02:36:27;17.00;;;7.23;;
52586;SDS011;38480;52.724;6.436;2023-07-08T02:38:53;10.70;;;6.90;;
52586;SDS011;38480;52.724;6.436;2023-07-08T02:41:19;10.67;;;7.53;;
52586;SDS011;38480;52.724;6.436;2023-07-08T02:43:45;14.87;;;7.90;;
52586;SDS011;38480;52.724;6.436;2023-07-08T02:46:11;11.37;;;7.33;;
52586;SDS011;38480;52.724;6.436;2023-07-08T02:48:37;10.07;;;6.47;;
52586;SDS011;38480;52.724;6.436;2023-07-08T02:51:03;11.40;;;7.17;;
52586;SDS011;38480;52.724;6.436;2023-07-08T02:53:30;10.70;;;6.57;;
52586;SDS011;38480;52.724;6.436;2023-07-08T02:55:56;12.90;;;7.47;;
52586;SDS011;38480;52.724;6.436;2023-07-08T02:58:22;9.50;;;7.10;;
52586;SDS011;38480;52.724;6.436;2023-07-08T03:00:52;12.97;;;7.60;;
52586;SDS011;38480;52.724;6.436;2023-07-08T03:03:18;15.00;;;7.17;;
52586;SDS011;38480;52.724;6.436;2023-07-08T03:05:44;18.70;;;7.53;;
52586;SDS011;38480;52.724;6.436;2023-07-08T03:08:10;11.43;;;7.30;;
52586;SDS011;38480;52.724;6.436;2023-07-08T03:10:36;14.40;;;8.10;;
52586;SDS011;38480;52.724;6.436;2023-07-08T03:13:02;13.57;;;8.67;;
52586;SDS011;38480;52.724;6.436;2023-07-08T03:15:28;12.57;;;8.17;;
52586;SDS011;38480;52.724;6.436;2023-07-08T03:17:54;12.40;;;8.63;;
52586;SDS011;38480;52.724;6.436;2023-07-08T03:20:22;11.97;;;8.47;;
52586;SDS011;38480;52.724;6.436;2023-07-08T03:22:48;11.60;;;8.53;;
52586;SDS011;38480;52.724;6.436;2023-07-08T03:25:14;10.80;;;7.87;;
52586;SDS011;38480;52.724;6.436;2023-07-08T03:27:40;12.90;;;9.47;;
52586;SDS011;38480;52.724;6.436;2023-07-08T03:30:08;14.40;;;9.13;;
52586;SDS011;38480;52.724;6.436;2023-07-08T03:32:34;13.03;;;9.53;;
52586;SDS011;38480;52.724;6.436;2023-07-08T03:35:00;12.63;;;8.87;;
52586;SDS011;38480;52.724;6.436;2023-07-08T03:37:26;11.37;;;9.00;;
52586;SDS011;38480;52.724;6.436;2023-07-08T03:39:52;15.90;;;8.37;;
52586;SDS011;38480;52.724;6.436;2023-07-08T03:42:18;15.83;;;11.37;;
52586;SDS011;38480;52.724;6.436;2023-07-08T03:44:44;13.57;;;9.93;;
52586;SDS011;38480;52.724;6.436;2023-07-08T03:47:10;14.63;;;10.60;;
52586;SDS011;38480;52.724;6.436;2023-07-08T03:49:36;12.77;;;9.83;;
52586;SDS011;38480;52.724;6.436;2023-07-08T03:52:02;16.60;;;9.93;;
52586;SDS011;38480;52.724;6.436;2023-07-08T03:54:28;14.53;;;10.23;;
52586;SDS011;38480;52.724;6.436;2023-07-08T03:56:54;14.87;;;10.40;;
52586;SDS011;38480;52.724;6.436;2023-07-08T03:59:21;13.87;;;10.20;;
52586;SDS011;38480;52.724;6.436;2023-07-08T04:01:47;12.77;;;9.47;;
52586;SDS011;38480;52.724;6.436;2023-07-08T04:04:14;10.20;;;8.93;;
52586;SDS011;38480;52.724;6.436;2023-07-08T04:06:40;15.27;;;10.03;;
52586;SDS011;38480;52.724;6.436;2023-07-08T04:09:06;16.07;;;10.00;;
52586;SDS011;38480;52.724;6.436;2023-07-08T04:11:32;12.83;;;9.63;;
52586;SDS011;38480;52.724;6.436;2023-07-08T04:13:58;11.67;;;9.03;;
52586;SDS011;38480;52.724;6.436;2023-07-08T04:16:25;13.80;;;9.27;;
52586;SDS011;38480;52.724;6.436;2023-07-08T04:18:55;11.57;;;9.17;;
52586;SDS011;38480;52.724;6.436;2023-07-08T04:21:22;11.53;;;8.60;;
52586;SDS011;38480;52.724;6.436;2023-07-08T04:23:50;11.63;;;8.93;;
52586;SDS011;38480;52.724;6.436;2023-07-08T04:26:16;9.60;;;7.70;;
52586;SDS011;38480;52.724;6.436;2023-07-08T04:28:43;9.73;;;8.20;;
52586;SDS011;38480;52.724;6.436;2023-07-08T04:31:10;12.00;;;8.77;;
52586;SDS011;38480;52.724;6.436;2023-07-08T04:33:36;14.17;;;8.47;;
52586;SDS011;38480;52.724;6.436;2023-07-08T04:36:02;14.03;;;9.30;;
52586;SDS011;38480;52.724;6.436;2023-07-08T04:38:28;11.80;;;8.10;;
52586;SDS011;38480;52.724;6.436;2023-07-08T04:40:54;12.03;;;8.70;;
52586;SDS011;38480;52.724;6.436;2023-07-08T04:43:22;14.23;;;8.60;;
52586;SDS011;38480;52.724;6.436;2023-07-08T04:45:54;15.83;;;8.80;;
52586;SDS011;38480;52.724;6.436;2023-07-08T04:48:20;12.97;;;8.07;;
52586;SDS011;38480;52.724;6.436;2023-07-08T04:50:47;9.17;;;7.10;;
52586;SDS011;38480;52.724;6.436;2023-07-08T04:53:13;11.40;;;7.60;;
52586;SDS011;38480;52.724;6.436;2023-07-08T04:55:43;15.93;;;8.47;;
52586;SDS011;38480;52.724;6.436;2023-07-08T04:58:10;11.70;;;7.37;;
52586;SDS011;38480;52.724;6.436;2023-07-08T05:00:36;15.23;;;7.20;;
52586;SDS011;38480;52.724;6.436;2023-07-08T05:03:02;10.47;;;7.33;;
52586;SDS011;38480;52.724;6.436;2023-07-08T05:05:29;11.90;;;7.23;;
52586;SDS011;38480;52.724;6.436;2023-07-08T05:07:55;11.40;;;7.17;;
52586;SDS011;38480;52.724;6.436;2023-07-08T05:10:21;9.47;;;6.80;;
52586;SDS011;38480;52.724;6.436;2023-07-08T05:12:49;9.33;;;7.13;;
52586;SDS011;38480;52.724;6.436;2023-07-08T05:15:15;10.63;;;6.93;;
52586;SDS011;38480;52.724;6.436;2023-07-08T05:17:41;9.73;;;7.17;;
52586;SDS011;38480;52.724;6.436;2023-07-08T05:20:08;9.70;;;6.63;;
52586;SDS011;38480;52.724;6.436;2023-07-08T05:22:34;9.17;;;6.13;;
52586;SDS011;38480;52.724;6.436;2023-07-08T05:25:00;9.27;;;6.53;;
52586;SDS011;38480;52.724;6.436;2023-07-08T05:27:26;12.00;;;6.73;;
52586;SDS011;38480;52.724;6.436;2023-07-08T05:29:53;12.33;;;6.50;;
52586;SDS011;38480;52.724;6.436;2023-07-08T05:32:19;11.77;;;6.40;;
52586;SDS011;38480;52.724;6.436;2023-07-08T05:34:45;8.53;;;5.33;;
52586;SDS011;38480;52.724;6.436;2023-07-08T05:37:12;13.90;;;5.77;;
52586;SDS011;38480;52.724;6.436;2023-07-08T05:39:38;8.80;;;5.17;;
52586;SDS011;38480;52.724;6.436;2023-07-08T05:42:05;9.23;;;6.17;;
52586;SDS011;38480;52.724;6.436;2023-07-08T05:44:31;8.27;;;5.30;;
52586;SDS011;38480;52.724;6.436;2023-07-08T05:46:57;9.53;;;5.40;;
52586;SDS011;38480;52.724;6.436;2023-07-08T05:49:23;15.20;;;5.80;;
52586;SDS011;38480;52.724;6.436;2023-07-08T05:51:49;11.10;;;5.60;;
52586;SDS011;38480;52.724;6.436;2023-07-08T05:54:16;8.33;;;4.93;;
52586;SDS011;38480;52.724;6.436;2023-07-08T05:56:42;10.37;;;5.10;;
52586;SDS011;38480;52.724;6.436;2023-07-08T05:59:08;9.13;;;5.07;;
52586;SDS011;38480;52.724;6.436;2023-07-08T06:01:35;8.90;;;5.67;;
52586;SDS011;38480;52.724;6.436;2023-07-08T06:04:01;9.87;;;5.03;;
52586;SDS011;38480;52.724;6.436;2023-07-08T06:06:28;8.97;;;4.83;;
52586;SDS011;38480;52.724;6.436;2023-07-08T06:08:54;7.10;;;4.60;;
52586;SDS011;38480;52.724;6.436;2023-07-08T06:11:20;7.53;;;4.30;;
52586;SDS011;38480;52.724;6.436;2023-07-08T06:13:49;9.90;;;4.27;;
52586;SDS011;38480;52.724;6.436;2023-07-08T06:16:15;8.33;;;4.20;;
52586;SDS011;38480;52.724;6.436;2023-07-08T06:18:41;6.67;;;3.80;;
52586;SDS011;38480;52.724;6.436;2023-07-08T06:21:07;10.40;;;4.40;;
52586;SDS011;38480;52.724;6.436;2023-07-08T06:23:33;7.43;;;3.80;;
52586;SDS011;38480;52.724;6.436;2023-07-08T06:25:59;7.10;;;3.83;;
52586;SDS011;38480;52.724;6.436;2023-07-08T06:28:25;8.33;;;4.30;;
52586;SDS011;38480;52.724;6.436;2023-07-08T06:30:51;6.27;;;4.30;;
52586;SDS011;38480;52.724;6.436;2023-07-08T06:33:17;6.23;;;3.73;;
52586;SDS011;38480;52.724;6.436;2023-07-08T06:35:43;6.50;;;3.90;;
52586;SDS011;38480;52.724;6.436;2023-07-08T06:38:09;4.93;;;3.97;;
52586;SDS011;38480;52.724;6.436;2023-07-08T06:40:35;6.77;;;4.03;;
52586;SDS011;38480;52.724;6.436;2023-07-08T06:43:02;9.10;;;3.70;;
52586;SDS011;38480;52.724;6.436;2023-07-08T06:45:29;8.43;;;3.87;;
52586;SDS011;38480;52.724;6.436;2023-07-08T06:47:55;7.07;;;3.70;;
52586;SDS011;38480;52.724;6.436;2023-07-08T06:50:20;5.57;;;3.60;;
52586;SDS011;38480;52.724;6.436;2023-07-08T06:52:46;7.20;;;3.90;;
52586;SDS011;38480;52.724;6.436;2023-07-08T06:55:13;9.47;;;3.50;;
52586;SDS011;38480;52.724;6.436;2023-07-08T06:57:39;6.73;;;3.40;;
52586;SDS011;38480;52.724;6.436;2023-07-08T07:00:08;5.17;;;3.53;;
52586;SDS011;38480;52.724;6.436;2023-07-08T07:02:34;5.30;;;3.00;;
52586;SDS011;38480;52.724;6.436;2023-07-08T07:05:01;21.90;;;4.93;;
52586;SDS011;38480;52.724;6.436;2023-07-08T07:07:27;6.77;;;3.37;;
52586;SDS011;38480;52.724;6.436;2023-07-08T07:09:53;6.33;;;3.10;;
52586;SDS011;38480;52.724;6.436;2023-07-08T07:12:19;4.57;;;3.00;;
52586;SDS011;38480;52.724;6.436;2023-07-08T07:14:45;8.17;;;3.43;;
52586;SDS011;38480;52.724;6.436;2023-07-08T07:17:11;5.43;;;3.10;;
52586;SDS011;38480;52.724;6.436;2023-07-08T07:19:37;6.33;;;2.83;;
52586;SDS011;38480;52.724;6.436;2023-07-08T07:22:03;6.10;;;3.40;;
52586;SDS011;38480;52.724;6.436;2023-07-08T07:24:29;5.23;;;2.93;;
52586;SDS011;38480;52.724;6.436;2023-07-08T07:26:55;6.77;;;3.50;;
52586;SDS011;38480;52.724;6.436;2023-07-08T07:29:22;6.93;;;3.77;;
52586;SDS011;38480;52.724;6.436;2023-07-08T07:31:49;5.33;;;3.70;;
52586;SDS011;38480;52.724;6.436;2023-07-08T07:34:16;5.73;;;2.93;;
52586;SDS011;38480;52.724;6.436;2023-07-08T07:36:42;5.73;;;3.40;;
52586;SDS011;38480;52.724;6.436;2023-07-08T07:39:08;6.43;;;3.17;;
52586;SDS011;38480;52.724;6.436;2023-07-08T07:41:34;8.10;;;3.17;;
52586;SDS011;38480;52.724;6.436;2023-07-08T07:44:00;6.37;;;2.90;;
52586;SDS011;38480;52.724;6.436;2023-07-08T07:46:26;4.93;;;2.90;;
52586;SDS011;38480;52.724;6.436;2023-07-08T07:48:52;5.83;;;2.90;;
52586;SDS011;38480;52.724;6.436;2023-07-08T07:51:18;5.17;;;3.07;;
52586;SDS011;38480;52.724;6.436;2023-07-08T07:53:44;6.03;;;3.30;;
52586;SDS011;38480;52.724;6.436;2023-07-08T07:56:10;4.63;;;2.93;;
52586;SDS011;38480;52.724;6.436;2023-07-08T07:58:36;5.93;;;2.90;;
52586;SDS011;38480;52.724;6.436;2023-07-08T08:01:02;10.23;;;3.10;;
52586;SDS011;38480;52.724;6.436;2023-07-08T08:03:28;5.82;;;3.45;;
52586;SDS011;38480;52.724;6.436;2023-07-08T08:05:54;8.25;;;3.60;;
52586;SDS011;38480;52.724;6.436;2023-07-08T08:08:20;5.93;;;2.92;;
52586;SDS011;38480;52.724;6.436;2023-07-08T08:10:47;6.57;;;2.63;;
52586;SDS011;38480;52.724;6.436;2023-07-08T08:13:14;6.50;;;2.70;;
52586;SDS011;38480;52.724;6.436;2023-07-08T08:15:40;4.78;;;2.75;;
52586;SDS011;38480;52.724;6.436;2023-07-08T08:18:06;11.50;;;3.30;;
52586;SDS011;38480;52.724;6.436;2023-07-08T08:20:32;7.13;;;3.38;;
52586;SDS011;38480;52.724;6.436;2023-07-08T08:22:58;4.28;;;2.58;;
52586;SDS011;38480;52.724;6.436;2023-07-08T08:25:24;6.25;;;2.90;;
52586;SDS011;38480;52.724;6.436;2023-07-08T08:27:50;5.55;;;3.00;;
52586;SDS011;38480;52.724;6.436;2023-07-08T08:30:17;5.10;;;2.28;;
52586;SDS011;38480;52.724;6.436;2023-07-08T08:32:43;5.60;;;2.67;;
52586;SDS011;38480;52.724;6.436;2023-07-08T08:35:09;6.50;;;2.75;;
52586;SDS011;38480;52.724;6.436;2023-07-08T08:37:35;4.45;;;2.75;;
52586;SDS011;38480;52.724;6.436;2023-07-08T08:40:01;6.95;;;3.08;;
52586;SDS011;38480;52.724;6.436;2023-07-08T08:42:30;5.00;;;2.83;;
52586;SDS011;38480;52.724;6.436;2023-07-08T08:44:58;6.05;;;2.65;;
52586;SDS011;38480;52.724;6.436;2023-07-08T08:47:29;5.13;;;3.70;;
52586;SDS011;38480;52.724;6.436;2023-07-08T08:50:00;5.03;;;3.05;;
52586;SDS011;38480;52.724;6.436;2023-07-08T08:52:27;4.97;;;2.88;;
52586;SDS011;38480;52.724;6.436;2023-07-08T08:54:53;7.50;;;2.97;;
52586;SDS011;38480;52.724;6.436;2023-07-08T08:59:55;8.98;;;3.75;;
52586;SDS011;38480;52.724;6.436;2023-07-08T09:02:33;7.38;;;3.05;;
52586;SDS011;38480;52.724;6.436;2023-07-08T09:05:04;5.50;;;2.97;;
52586;SDS011;38480;52.724;6.436;2023-07-08T09:07:34;5.20;;;3.08;;
52586;SDS011;38480;52.724;6.436;2023-07-08T09:10:04;5.72;;;3.10;;
52586;SDS011;38480;52.724;6.436;2023-07-08T09:12:33;6.63;;;3.05;;
52586;SDS011;38480;52.724;6.436;2023-07-08T09:15:00;5.85;;;3.15;;
52586;SDS011;38480;52.724;6.436;2023-07-08T09:17:31;5.88;;;3.03;;
52586;SDS011;38480;52.724;6.436;2023-07-08T09:20:06;7.65;;;3.15;;
52586;SDS011;38480;52.724;6.436;2023-07-08T09:22:42;4.93;;;3.22;;
52586;SDS011;38480;52.724;6.436;2023-07-08T09:27:35;5.10;;;3.63;;
52586;SDS011;38480;52.724;6.436;2023-07-08T09:30:02;4.53;;;2.78;;
52586;SDS011;38480;52.724;6.436;2023-07-08T09:32:28;6.00;;;3.33;;
52586;SDS011;38480;52.724;6.436;2023-07-08T09:39:46;6.07;;;2.88;;
52586;SDS011;38480;52.724;6.436;2023-07-08T09:42:12;5.15;;;2.80;;
52586;SDS011;38480;52.724;6.436;2023-07-08T09:44:39;6.35;;;2.83;;
52586;SDS011;38480;52.724;6.436;2023-07-08T09:47:08;5.28;;;3.20;;
52586;SDS011;38480;52.724;6.436;2023-07-08T09:49:42;7.28;;;2.80;;
52586;SDS011;38480;52.724;6.436;2023-07-08T09:52:10;4.15;;;2.83;;
52586;SDS011;38480;52.724;6.436;2023-07-08T09:54:39;5.78;;;2.85;;
52586;SDS011;38480;52.724;6.436;2023-07-08T09:57:11;4.60;;;3.13;;
52586;SDS011;38480;52.724;6.436;2023-07-08T09:59:39;5.18;;;2.83;;
52586;SDS011;38480;52.724;6.436;2023-07-08T10:04:51;7.03;;;3.17;;
52586;SDS011;38480;52.724;6.436;2023-07-08T10:07:17;6.75;;;3.28;;
52586;SDS011;38480;52.724;6.436;2023-07-08T10:09:43;7.40;;;3.38;;
52586;SDS011;38480;52.724;6.436;2023-07-08T10:12:12;4.93;;;2.70;;
52586;SDS011;38480;52.724;6.436;2023-07-08T10:14:42;7.90;;;3.42;;
52586;SDS011;38480;52.724;6.436;2023-07-08T10:17:12;5.95;;;3.08;;
52586;SDS011;38480;52.724;6.436;2023-07-08T10:19:39;4.65;;;2.83;;
52586;SDS011;38480;52.724;6.436;2023-07-08T10:25:09;5.70;;;2.80;;
52586;SDS011;38480;52.724;6.436;2023-07-08T10:27:43;5.30;;;2.75;;
52586;SDS011;38480;52.724;6.436;2023-07-08T10:33:00;7.25;;;3.22;;
52586;SDS011;38480;52.724;6.436;2023-07-08T10:35:39;7.47;;;3.15;;
52586;SDS011;38480;52.724;6.436;2023-07-08T10:55:51;3.15;;;2.60;;
52586;SDS011;38480;52.724;6.436;2023-07-08T11:03:52;5.60;;;3.20;;
52586;SDS011;38480;52.724;6.436;2023-07-08T11:06:22;8.25;;;3.45;;
52586;SDS011;38480;52.724;6.436;2023-07-08T11:08:50;7.35;;;3.25;;
52586;SDS011;38480;52.724;6.436;2023-07-08T11:11:32;5.05;;;3.28;;
52586;SDS011;38480;52.724;6.436;2023-07-08T11:14:05;6.40;;;2.97;;
52586;SDS011;38480;52.724;6.436;2023-07-08T11:16:34;7.03;;;3.83;;
52586;SDS011;38480;52.724;6.436;2023-07-08T11:19:04;6.13;;;3.40;;
52586;SDS011;38480;52.724;6.436;2023-07-08T11:21:35;5.35;;;3.35;;
52586;SDS011;38480;52.724;6.436;2023-07-08T11:24:05;4.80;;;3.40;;
52586;SDS011;38480;52.724;6.436;2023-07-08T11:26:43;5.78;;;3.20;;
52586;SDS011;38480;52.724;6.436;2023-07-08T11:29:17;5.10;;;2.90;;
52586;SDS011;38480;52.724;6.436;2023-07-08T11:31:44;6.80;;;3.53;;
52586;SDS011;38480;52.724;6.436;2023-07-08T11:34:11;4.18;;;2.90;;
52586;SDS011;38480;52.724;6.436;2023-07-08T11:36:38;7.57;;;3.13;;
52586;SDS011;38480;52.724;6.436;2023-07-08T11:39:05;6.60;;;3.90;;
52586;SDS011;38480;52.724;6.436;2023-07-08T11:41:51;6.30;;;3.35;;
52586;SDS011;38480;52.724;6.436;2023-07-08T11:44:18;6.03;;;3.53;;
52586;SDS011;38480;52.724;6.436;2023-07-08T11:46:53;7.07;;;3.63;;
52586;SDS011;38480;52.724;6.436;2023-07-08T11:49:19;7.78;;;4.50;;
52586;SDS011;38480;52.724;6.436;2023-07-08T11:51:46;7.80;;;4.30;;
52586;SDS011;38480;52.724;6.436;2023-07-08T11:54:13;5.90;;;3.95;;
52586;SDS011;38480;52.724;6.436;2023-07-08T11:57:03;6.68;;;4.40;;
52586;SDS011;38480;52.724;6.436;2023-07-08T11:59:29;6.55;;;3.53;;
52586;SDS011;38480;52.724;6.436;2023-07-08T12:02:02;8.63;;;4.18;;
52586;SDS011;38480;52.724;6.436;2023-07-08T12:04:30;6.80;;;4.13;;
52586;SDS011;38480;52.724;6.436;2023-07-08T12:07:09;6.22;;;3.90;;
52586;SDS011;38480;52.724;6.436;2023-07-08T12:09:37;5.20;;;3.95;;
52586;SDS011;38480;52.724;6.436;2023-07-08T12:12:09;6.95;;;4.15;;
52586;SDS011;38480;52.724;6.436;2023-07-08T12:14:40;6.25;;;4.47;;
52586;SDS011;38480;52.724;6.436;2023-07-08T12:17:12;7.50;;;4.57;;
52586;SDS011;38480;52.724;6.436;2023-07-08T12:19:38;6.57;;;4.03;;
52586;SDS011;38480;52.724;6.436;2023-07-08T12:22:07;6.68;;;4.22;;
52586;SDS011;38480;52.724;6.436;2023-07-08T12:24:33;9.43;;;4.72;;
52586;SDS011;38480;52.724;6.436;2023-07-08T12:26:59;8.55;;;4.78;;
52586;SDS011;38480;52.724;6.436;2023-07-08T12:29:25;6.95;;;4.53;;
52586;SDS011;38480;52.724;6.436;2023-07-08T12:31:53;8.27;;;4.18;;
52586;SDS011;38480;52.724;6.436;2023-07-08T12:34:19;6.50;;;4.30;;
52586;SDS011;38480;52.724;6.436;2023-07-08T12:36:46;6.22;;;4.10;;
52586;SDS011;38480;52.724;6.436;2023-07-08T12:39:15;5.40;;;3.90;;
52586;SDS011;38480;52.724;6.436;2023-07-08T12:41:42;5.95;;;4.03;;
52586;SDS011;38480;52.724;6.436;2023-07-08T12:44:21;6.13;;;4.35;;
52586;SDS011;38480;52.724;6.436;2023-07-08T12:46:47;6.03;;;3.60;;
52586;SDS011;38480;52.724;6.436;2023-07-08T12:49:17;7.63;;;4.20;;
52586;SDS011;38480;52.724;6.436;2023-07-08T12:51:44;6.00;;;3.70;;
52586;SDS011;38480;52.724;6.436;2023-07-08T12:54:11;5.75;;;4.05;;
52586;SDS011;38480;52.724;6.436;2023-07-08T12:56:38;7.25;;;4.43;;
52586;SDS011;38480;52.724;6.436;2023-07-08T12:59:05;5.55;;;4.07;;
52586;SDS011;38480;52.724;6.436;2023-07-08T13:01:33;7.03;;;4.30;;
52586;SDS011;38480;52.724;6.436;2023-07-08T13:04:01;8.25;;;4.47;;
52586;SDS011;38480;52.724;6.436;2023-07-08T13:06:29;5.80;;;4.90;;
52586;SDS011;38480;52.724;6.436;2023-07-08T13:08:57;4.93;;;4.32;;
52586;SDS011;38480;52.724;6.436;2023-07-08T13:11:27;6.95;;;4.57;;
52586;SDS011;38480;52.724;6.436;2023-07-08T13:13:54;6.00;;;4.78;;
52586;SDS011;38480;52.724;6.436;2023-07-08T13:16:22;8.18;;;4.72;;
52586;SDS011;38480;52.724;6.436;2023-07-08T13:18:49;5.15;;;4.65;;
52586;SDS011;38480;52.724;6.436;2023-07-08T13:21:15;8.40;;;5.00;;
52586;SDS011;38480;52.724;6.436;2023-07-08T13:23:41;6.88;;;4.95;;
52586;SDS011;38480;52.724;6.436;2023-07-08T13:26:18;7.47;;;5.25;;
52586;SDS011;38480;52.724;6.436;2023-07-08T13:28:45;8.13;;;4.57;;
52586;SDS011;38480;52.724;6.436;2023-07-08T13:31:15;7.03;;;5.40;;
52586;SDS011;38480;52.724;6.436;2023-07-08T13:33:45;7.30;;;4.78;;
52586;SDS011;38480;52.724;6.436;2023-07-08T13:36:11;10.13;;;4.60;;
52586;SDS011;38480;52.724;6.436;2023-07-08T13:38:38;5.25;;;4.75;;
52586;SDS011;38480;52.724;6.436;2023-07-08T13:41:06;5.88;;;4.65;;
52586;SDS011;38480;52.724;6.436;2023-07-08T13:43:34;5.68;;;4.60;;
52586;SDS011;38480;52.724;6.436;2023-07-08T13:46:01;8.70;;;4.70;;
52586;SDS011;38480;52.724;6.436;2023-07-08T13:48:33;8.50;;;5.03;;
52586;SDS011;38480;52.724;6.436;2023-07-08T13:51:06;6.90;;;4.53;;
52586;SDS011;38480;52.724;6.436;2023-07-08T13:53:38;7.38;;;4.93;;
52586;SDS011;38480;52.724;6.436;2023-07-08T13:56:11;7.10;;;5.32;;
52586;SDS011;38480;52.724;6.436;2023-07-08T13:58:41;5.18;;;4.68;;
52586;SDS011;38480;52.724;6.436;2023-07-08T14:01:08;6.05;;;4.97;;
52586;SDS011;38480;52.724;6.436;2023-07-08T14:03:35;5.85;;;4.32;;
52586;SDS011;38480;52.724;6.436;2023-07-08T14:06:01;7.55;;;5.18;;
52586;SDS011;38480;52.724;6.436;2023-07-08T14:08:27;6.80;;;4.88;;
52586;SDS011;38480;52.724;6.436;2023-07-08T14:10:54;6.75;;;5.13;;
52586;SDS011;38480;52.724;6.436;2023-07-08T14:13:20;6.30;;;5.28;;
52586;SDS011;38480;52.724;6.436;2023-07-08T14:15:46;7.80;;;5.38;;
52586;SDS011;38480;52.724;6.436;2023-07-08T14:18:12;6.50;;;5.22;;
52586;SDS011;38480;52.724;6.436;2023-07-08T14:20:38;7.47;;;5.10;;
52586;SDS011;38480;52.724;6.436;2023-07-08T14:23:04;6.68;;;5.63;;
52586;SDS011;38480;52.724;6.436;2023-07-08T14:25:30;5.80;;;4.78;;
52586;SDS011;38480;52.724;6.436;2023-07-08T14:27:56;6.35;;;4.88;;
52586;SDS011;38480;52.724;6.436;2023-07-08T14:30:22;7.88;;;5.20;;
52586;SDS011;38480;52.724;6.436;2023-07-08T14:32:48;6.88;;;5.45;;
52586;SDS011;38480;52.724;6.436;2023-07-08T14:35:23;8.38;;;5.00;;
52586;SDS011;38480;52.724;6.436;2023-07-08T14:37:49;8.95;;;5.40;;
52586;SDS011;38480;52.724;6.436;2023-07-08T14:40:20;9.77;;;5.43;;
52586;SDS011;38480;52.724;6.436;2023-07-08T14:42:46;5.88;;;5.03;;
52586;SDS011;38480;52.724;6.436;2023-07-08T14:45:12;5.88;;;5.15;;
52586;SDS011;38480;52.724;6.436;2023-07-08T14:47:38;8.18;;;5.00;;
52586;SDS011;38480;52.724;6.436;2023-07-08T14:50:14;8.07;;;5.65;;
52586;SDS011;38480;52.724;6.436;2023-07-08T14:52:40;9.27;;;5.22;;
52586;SDS011;38480;52.724;6.436;2023-07-08T14:55:07;7.55;;;5.13;;
52586;SDS011;38480;52.724;6.436;2023-07-08T14:57:37;8.65;;;5.47;;
52586;SDS011;38480;52.724;6.436;2023-07-08T15:00:05;6.38;;;5.65;;
52586;SDS011;38480;52.724;6.436;2023-07-08T15:02:32;6.32;;;5.32;;
52586;SDS011;38480;52.724;6.436;2023-07-08T15:05:01;6.45;;;5.80;;
52586;SDS011;38480;52.724;6.436;2023-07-08T15:07:27;8.15;;;5.47;;
52586;SDS011;38480;52.724;6.436;2023-07-08T15:09:53;10.57;;;5.35;;
52586;SDS011;38480;52.724;6.436;2023-07-08T15:12:19;7.55;;;5.93;;
52586;SDS011;38480;52.724;6.436;2023-07-08T15:14:45;6.45;;;5.07;;
52586;SDS011;38480;52.724;6.436;2023-07-08T15:17:12;9.23;;;5.78;;
52586;SDS011;38480;52.724;6.436;2023-07-08T15:19:40;6.30;;;5.70;;
52586;SDS011;38480;52.724;6.436;2023-07-08T15:22:06;7.68;;;5.57;;
52586;SDS011;38480;52.724;6.436;2023-07-08T15:24:32;6.55;;;5.85;;
52586;SDS011;38480;52.724;6.436;2023-07-08T15:26:58;9.13;;;5.70;;
52586;SDS011;38480;52.724;6.436;2023-07-08T15:29:24;5.65;;;5.05;;
52586;SDS011;38480;52.724;6.436;2023-07-08T15:31:51;6.07;;;5.22;;